createdAt,value
2019-03-30T00:00:33.343Z,24.47
2019-03-30T00:03:04.270Z,26.50
2019-03-30T00:05:35.388Z,25.13
2019-03-30T00:08:06.625Z,24.27
2019-03-30T00:10:37.474Z,26.30
2019-03-30T00:13:08.287Z,25.77
2019-03-30T00:15:38.824Z,24.83
2019-03-30T00:18:09.351Z,25.33
2019-03-30T00:20:40.364Z,27.43
2019-03-30T00:23:11.015Z,28.32
2019-03-30T00:25:41.900Z,26.77
2019-03-30T00:28:12.381Z,29.37
2019-03-30T00:30:42.935Z,27.20
2019-03-30T00:33:13.821Z,24.57
2019-03-30T00:35:44.332Z,25.90
2019-03-30T00:38:15.109Z,25.20
2019-03-30T00:40:45.640Z,23.43
2019-03-30T00:43:16.470Z,26.03
2019-03-30T00:45:48.852Z,26.60
2019-03-30T00:48:19.377Z,26.90
2019-03-30T00:50:49.954Z,28.70
2019-03-30T00:53:20.432Z,27.22
2019-03-30T00:55:50.884Z,26.00
2019-03-30T00:58:22.003Z,29.15
2019-03-30T01:00:52.820Z,25.80
2019-03-30T01:03:24.470Z,25.77
2019-03-30T01:05:58.143Z,26.30
2019-03-30T01:08:26.977Z,25.43
2019-03-30T01:10:57.513Z,23.83
2019-03-30T01:13:28.346Z,24.83
2019-03-30T01:15:59.993Z,26.10
2019-03-30T01:18:30.628Z,26.00
2019-03-30T01:21:01.257Z,24.50
2019-03-30T01:23:32.079Z,22.90
2019-03-30T01:26:02.918Z,22.87
2019-03-30T01:28:33.543Z,25.40
2019-03-30T01:31:04.674Z,24.30
2019-03-30T01:33:35.044Z,24.47
2019-03-30T01:36:07.041Z,24.97
2019-03-30T01:38:37.619Z,24.10
2019-03-30T01:41:08.530Z,23.67
2019-03-30T01:43:38.981Z,21.37
2019-03-30T01:46:09.903Z,21.23
2019-03-30T01:48:40.349Z,21.23
2019-03-30T01:51:10.959Z,21.35
2019-03-30T01:53:41.716Z,19.80
2019-03-30T01:56:12.223Z,21.10
2019-03-30T01:58:43.153Z,20.00
2019-03-30T02:01:19.757Z,19.77
2019-03-30T02:03:50.542Z,19.33
2019-03-30T02:06:21.414Z,18.82
2019-03-30T02:08:52.109Z,18.10
2019-03-30T02:11:22.750Z,18.57
2019-03-30T02:13:54.296Z,18.17
2019-03-30T02:16:25.073Z,17.57
2019-03-30T02:18:55.737Z,16.83
2019-03-30T02:21:26.355Z,15.27
2019-03-30T02:23:57.269Z,14.25
2019-03-30T02:26:27.794Z,13.73
2019-03-30T02:28:58.347Z,13.87
2019-03-30T02:31:29.240Z,13.40
2019-03-30T02:33:59.983Z,12.97
2019-03-30T02:36:30.397Z,13.90
2019-03-30T02:39:01.050Z,14.67
2019-03-30T02:41:33.420Z,16.50
2019-03-30T02:44:04.019Z,14.70
2019-03-30T02:46:34.799Z,14.90
2019-03-30T02:49:06.141Z,16.87
2019-03-30T02:51:36.767Z,17.23
2019-03-30T02:54:07.287Z,14.77
2019-03-30T02:56:37.825Z,16.67
2019-03-30T02:59:08.894Z,17.23
2019-03-30T03:01:39.582Z,16.53
2019-03-30T03:04:10.398Z,17.27
2019-03-30T03:06:41.169Z,17.00
2019-03-30T03:09:12.683Z,16.70
2019-03-30T03:11:43.136Z,17.53
2019-03-30T03:14:13.694Z,15.97
2019-03-30T03:16:44.202Z,16.10
2019-03-30T03:19:15.507Z,16.45
2019-03-30T03:21:46.173Z,16.63
2019-03-30T03:24:17.023Z,15.88
2019-03-30T03:26:47.773Z,16.63
2019-03-30T03:29:18.387Z,15.80
2019-03-30T03:31:49.480Z,15.67
2019-03-30T03:34:20.380Z,16.50
2019-03-30T03:36:50.970Z,14.17
2019-03-30T03:39:22.112Z,13.55
2019-03-30T03:41:52.565Z,12.87
2019-03-30T03:44:23.272Z,12.93
2019-03-30T03:46:53.923Z,13.57
2019-03-30T03:49:24.455Z,13.53
2019-03-30T03:51:55.070Z,13.70
2019-03-30T03:54:25.684Z,14.47
2019-03-30T03:56:58.015Z,12.80
2019-03-30T03:59:29.977Z,12.20
2019-03-30T04:02:03.042Z,13.20
2019-03-30T04:04:35.973Z,13.37
2019-03-30T04:07:08.636Z,12.87
2019-03-30T04:09:40.711Z,12.10
2019-03-30T04:12:13.043Z,11.10
2019-03-30T04:14:49.249Z,11.70
2019-03-30T04:17:20.014Z,11.22
2019-03-30T04:19:50.526Z,12.27
2019-03-30T04:22:21.562Z,11.85
2019-03-30T04:24:52.413Z,13.13
2019-03-30T04:27:24.019Z,12.68
2019-03-30T04:29:54.399Z,12.50
2019-03-30T04:32:24.947Z,12.17
2019-03-30T04:34:55.662Z,12.73
2019-03-30T04:37:27.352Z,12.47
2019-03-30T04:39:58.046Z,13.60
2019-03-30T04:42:28.674Z,12.13
2019-03-30T04:44:59.194Z,12.67
2019-03-30T04:47:29.915Z,13.77
2019-03-30T04:50:00.782Z,14.60
2019-03-30T04:52:31.505Z,13.43
2019-03-30T04:55:03.064Z,14.50
2019-03-30T04:57:33.791Z,13.50
2019-03-30T05:00:05.114Z,15.03
2019-03-30T05:02:36.185Z,14.83
2019-03-30T05:05:07.770Z,15.03
2019-03-30T05:07:38.352Z,13.23
2019-03-30T05:10:09.769Z,12.23
2019-03-30T05:12:40.147Z,14.07
2019-03-30T05:15:11.934Z,14.33
2019-03-30T05:17:47.493Z,13.93
2019-03-30T05:20:15.400Z,14.80
2019-03-30T05:22:45.958Z,16.60
2019-03-30T05:25:16.651Z,14.80
2019-03-30T05:27:47.319Z,15.27
2019-03-30T05:30:18.518Z,14.10
2019-03-30T05:32:49.373Z,15.33
2019-03-30T05:35:20.206Z,16.27
2019-03-30T05:37:50.961Z,14.95
2019-03-30T05:40:21.494Z,16.07
2019-03-30T05:42:52.295Z,15.03
2019-03-30T05:45:23.363Z,15.40
2019-03-30T05:47:54.311Z,14.58
2019-03-30T05:50:25.796Z,15.80
2019-03-30T05:52:56.545Z,17.17
2019-03-30T05:55:27.308Z,17.90
2019-03-30T05:57:57.955Z,16.10
2019-03-30T06:00:28.486Z,16.80
2019-03-30T06:02:59.016Z,15.37
2019-03-30T06:05:30.241Z,16.83
2019-03-30T06:08:01.286Z,17.17
2019-03-30T06:10:31.818Z,17.37
2019-03-30T06:13:02.655Z,16.60
2019-03-30T06:15:33.184Z,16.00
2019-03-30T06:18:03.793Z,16.70
2019-03-30T06:20:34.717Z,16.23
2019-03-30T06:23:06.701Z,17.27
2019-03-30T06:25:38.391Z,18.23
2019-03-30T06:28:08.911Z,17.27
2019-03-30T06:30:39.434Z,17.43
2019-03-30T06:33:10.200Z,20.53
2019-03-30T06:35:41.102Z,18.83
2019-03-30T06:38:11.617Z,20.33
2019-03-30T06:40:42.336Z,20.13
2019-03-30T06:43:12.998Z,20.13
2019-03-30T06:45:43.356Z,17.97
2019-03-30T06:48:14.013Z,19.32
2019-03-30T06:50:44.372Z,19.60
2019-03-30T06:53:15.021Z,18.53
2019-03-30T06:55:45.728Z,19.50
2019-03-30T06:58:17.889Z,23.43
2019-03-30T07:00:49.312Z,21.50
2019-03-30T07:03:20.162Z,22.63
2019-03-30T07:05:52.517Z,23.73
2019-03-30T07:08:23.558Z,21.77
2019-03-30T07:10:54.203Z,21.40
2019-03-30T07:13:26.244Z,21.20
2019-03-30T07:15:58.156Z,23.40
2019-03-30T07:18:29.065Z,21.33
2019-03-30T07:21:00.273Z,22.60
2019-03-30T07:23:31.056Z,22.67
2019-03-30T07:26:01.892Z,22.40
2019-03-30T07:28:32.532Z,23.27
2019-03-30T07:31:03.175Z,23.30
2019-03-30T07:33:33.885Z,21.30
2019-03-30T07:36:04.913Z,22.57
2019-03-30T07:38:35.352Z,21.20
2019-03-30T07:41:06.908Z,22.60
2019-03-30T07:43:37.425Z,22.17
2019-03-30T07:46:08.232Z,20.67
2019-03-30T07:48:40.026Z,20.45
2019-03-30T07:51:10.673Z,19.30
2019-03-30T07:53:44.613Z,18.57
2019-03-30T07:56:13.854Z,19.10
2019-03-30T07:58:44.597Z,17.53
2019-03-30T08:01:15.847Z,17.80
2019-03-30T08:03:46.717Z,17.00
2019-03-30T08:06:18.098Z,17.50
2019-03-30T08:08:48.453Z,17.37
2019-03-30T08:11:19.661Z,15.63
2019-03-30T08:13:50.892Z,17.03
2019-03-30T08:16:21.575Z,17.07
2019-03-30T08:18:53.228Z,16.50
2019-03-30T08:21:24.358Z,15.65
2019-03-30T08:23:55.517Z,17.20
2019-03-30T08:26:26.335Z,15.93
2019-03-30T08:28:57.310Z,15.87
2019-03-30T08:31:27.915Z,16.60
2019-03-30T08:33:58.802Z,16.60
2019-03-30T08:36:29.648Z,15.53
2019-03-30T08:39:00.025Z,14.90
2019-03-30T08:41:31.044Z,15.13
2019-03-30T08:44:01.777Z,14.30
2019-03-30T08:46:32.335Z,15.47
2019-03-30T08:49:03.562Z,14.18
2019-03-30T08:51:34.501Z,13.50
2019-03-30T08:54:07.152Z,13.30
2019-03-30T08:56:38.021Z,14.53
2019-03-30T08:59:09.670Z,12.47
2019-03-30T09:01:40.302Z,13.30
2019-03-30T09:04:11.603Z,14.15
2019-03-30T09:06:42.240Z,13.73
2019-03-30T09:09:13.394Z,12.90
2019-03-30T09:11:44.152Z,12.50
2019-03-30T09:14:15.231Z,13.20
2019-03-30T09:16:46.198Z,12.67
2019-03-30T09:19:17.245Z,13.83
2019-03-30T09:22:00.078Z,12.63
2019-03-30T09:24:30.725Z,13.50
2019-03-30T09:27:01.354Z,12.90
2019-03-30T09:29:32.092Z,12.43
2019-03-30T09:32:13.711Z,13.80
2019-03-30T09:34:34.983Z,12.87
2019-03-30T09:37:06.443Z,13.53
2019-03-30T09:39:39.929Z,14.23
2019-03-30T09:42:10.878Z,13.53
2019-03-30T09:44:41.714Z,12.67
2019-03-30T09:47:13.953Z,13.25
2019-03-30T09:49:44.615Z,13.13
2019-03-30T09:52:15.366Z,13.27
2019-03-30T09:54:45.973Z,13.20
2019-03-30T09:57:16.571Z,13.20
2019-03-30T09:59:48.344Z,12.80
2019-03-30T10:02:19.086Z,13.58
2019-03-30T10:04:49.631Z,13.40
2019-03-30T10:07:21.379Z,12.85
2019-03-30T10:09:52.209Z,12.23
2019-03-30T10:12:23.201Z,13.38
2019-03-30T10:14:54.804Z,12.87
2019-03-30T10:17:25.638Z,12.30
2019-03-30T10:20:04.125Z,11.40
2019-03-30T10:22:29.169Z,12.70
2019-03-30T10:24:59.689Z,12.87
2019-03-30T10:27:30.207Z,12.33
2019-03-30T10:30:00.814Z,12.23
2019-03-30T10:32:32.909Z,13.87
2019-03-30T10:35:03.666Z,13.10
2019-03-30T10:37:34.662Z,13.10
2019-03-30T10:40:07.363Z,12.58
2019-03-30T10:42:38.166Z,13.63
2019-03-30T10:45:09.489Z,12.30
2019-03-30T10:47:40.287Z,12.60
2019-03-30T10:50:11.363Z,12.13
2019-03-30T10:52:41.958Z,13.60
2019-03-30T10:55:12.574Z,12.78
2019-03-30T10:57:43.026Z,13.17
2019-03-30T11:00:18.692Z,12.67
2019-03-30T11:02:49.278Z,13.83
2019-03-30T11:05:19.818Z,13.07
2019-03-30T11:07:51.274Z,13.03
2019-03-30T11:10:23.014Z,13.93
2019-03-30T11:12:53.550Z,13.73
2019-03-30T11:15:25.010Z,13.73
2019-03-30T11:17:56.151Z,13.70
2019-03-30T11:20:26.671Z,12.70
2019-03-30T11:22:57.794Z,13.07
2019-03-30T11:25:29.262Z,13.73
2019-03-30T11:28:00.122Z,12.60
2019-03-30T11:30:30.938Z,12.87
2019-03-30T11:33:03.187Z,13.73
2019-03-30T11:35:34.145Z,13.73
2019-03-30T11:38:04.767Z,12.47
2019-03-30T11:40:35.639Z,12.43
2019-03-30T11:43:06.668Z,13.03
2019-03-30T11:45:37.480Z,12.93
2019-03-30T11:48:09.239Z,13.00
2019-03-30T11:50:40.085Z,13.40
2019-03-30T11:53:10.623Z,12.60
2019-03-30T11:55:41.511Z,12.30
2019-03-30T11:58:13.501Z,12.13
2019-03-30T12:00:44.987Z,12.07
2019-03-30T12:03:15.877Z,11.93
2019-03-30T12:05:47.313Z,13.10
2019-03-30T12:08:18.705Z,12.47
2019-03-30T12:10:49.529Z,13.43
2019-03-30T12:13:20.363Z,12.93
2019-03-30T12:15:51.837Z,13.03
2019-03-30T12:18:22.655Z,12.90
2019-03-30T12:20:54.194Z,13.30
2019-03-30T12:23:24.936Z,12.47
2019-03-30T12:25:56.572Z,12.97
2019-03-30T12:28:27.832Z,12.30
2019-03-30T12:30:58.371Z,11.93
2019-03-30T12:33:28.907Z,11.87
2019-03-30T12:36:00.045Z,12.93
2019-03-30T12:38:30.590Z,11.97
2019-03-30T12:41:01.087Z,11.57
2019-03-30T12:43:31.650Z,12.47
2019-03-30T12:46:02.778Z,11.63
2019-03-30T12:48:33.911Z,14.33
2019-03-30T12:51:05.133Z,12.83
2019-03-30T12:53:49.142Z,12.63
2019-03-30T12:56:09.092Z,12.33
2019-03-30T12:58:39.719Z,11.47
2019-03-30T13:01:15.464Z,12.68
2019-03-30T13:03:47.716Z,11.40
2019-03-30T13:06:18.667Z,10.80
2019-03-30T13:08:49.514Z,11.00
2019-03-30T13:11:20.341Z,11.10
2019-03-30T13:13:50.874Z,11.63
2019-03-30T13:16:21.714Z,9.93
2019-03-30T13:18:53.043Z,10.93
2019-03-30T13:21:23.688Z,10.03
2019-03-30T13:23:54.616Z,10.57
2019-03-30T13:26:25.348Z,11.23
2019-03-30T13:28:57.738Z,10.17
2019-03-30T13:31:30.095Z,10.17
2019-03-30T13:34:02.816Z,10.43
2019-03-30T13:36:43.210Z,10.27
2019-03-30T13:39:14.054Z,9.25
2019-03-30T13:41:45.132Z,10.50
2019-03-30T13:44:16.255Z,11.05
2019-03-30T13:46:47.051Z,11.60
2019-03-30T13:49:18.560Z,9.10
2019-03-30T13:51:49.709Z,9.90
2019-03-30T13:54:20.535Z,10.57
2019-03-30T13:56:51.138Z,10.07
2019-03-30T13:59:23.774Z,11.55
2019-03-30T14:01:54.261Z,10.83
2019-03-30T14:04:25.108Z,11.07
2019-03-30T14:06:55.623Z,12.53
2019-03-30T14:09:26.762Z,11.63
2019-03-30T14:11:57.360Z,12.30
2019-03-30T14:14:53.693Z,13.17
2019-03-30T14:17:24.478Z,12.50
2019-03-30T14:19:55.011Z,12.67
2019-03-30T14:22:26.441Z,10.85
2019-03-30T14:24:57.294Z,11.30
2019-03-30T14:27:28.430Z,11.93
2019-03-30T14:29:59.266Z,10.17
2019-03-30T14:32:29.780Z,11.60
2019-03-30T14:35:01.059Z,10.53
2019-03-30T14:37:31.843Z,10.50
2019-03-30T14:40:04.139Z,11.07
2019-03-30T14:42:34.662Z,11.57
2019-03-30T14:45:05.832Z,13.43
2019-03-30T14:47:36.344Z,13.33
2019-03-30T14:50:07.995Z,11.23
2019-03-30T14:52:38.708Z,11.03
2019-03-30T14:55:10.039Z,11.23
2019-03-30T14:57:40.598Z,10.57
2019-03-30T15:00:13.337Z,10.57
2019-03-30T15:02:44.420Z,10.50
2019-03-30T15:05:15.453Z,9.78
2019-03-30T15:07:46.410Z,9.67
2019-03-30T15:10:17.633Z,9.63
2019-03-30T15:12:48.412Z,9.07
2019-03-30T15:15:20.521Z,9.15
2019-03-30T15:17:51.267Z,11.17
2019-03-30T15:20:22.427Z,11.15
2019-03-30T15:22:53.282Z,10.53
2019-03-30T15:25:23.964Z,12.47
2019-03-30T15:27:54.797Z,9.97
2019-03-30T15:30:25.555Z,11.00
2019-03-30T15:32:56.364Z,10.73
2019-03-30T15:35:27.228Z,10.60
2019-03-30T15:37:57.833Z,9.70
2019-03-30T15:40:28.198Z,9.77
2019-03-30T15:42:58.708Z,8.30
2019-03-30T15:45:29.717Z,9.63
2019-03-30T15:48:00.555Z,10.20
2019-03-30T15:50:31.099Z,9.23
2019-03-30T15:53:01.745Z,8.93
2019-03-30T15:55:32.442Z,10.43
2019-03-30T15:58:03.366Z,10.07
2019-03-30T16:00:34.112Z,10.40
2019-03-30T16:03:10.412Z,9.37
2019-03-30T16:05:43.007Z,10.00
2019-03-30T16:08:13.830Z,10.13
2019-03-30T16:10:44.505Z,10.17
2019-03-30T16:13:15.495Z,9.93
2019-03-30T16:15:48.818Z,10.43
2019-03-30T16:18:19.706Z,10.20
2019-03-30T16:20:50.782Z,11.17
2019-03-30T16:23:21.607Z,10.40
2019-03-30T16:25:52.661Z,10.33
2019-03-30T16:28:23.659Z,10.38
2019-03-30T16:30:54.429Z,10.07
2019-03-30T16:33:28.746Z,10.33
2019-03-30T16:36:02.569Z,9.17
2019-03-30T16:38:31.247Z,10.27
2019-03-30T16:41:02.699Z,10.50
2019-03-30T16:43:33.206Z,11.07
2019-03-30T16:46:03.820Z,10.57
2019-03-30T16:48:34.970Z,10.17
2019-03-30T16:51:06.489Z,10.48
2019-03-30T16:53:37.409Z,9.70
2019-03-30T16:56:08.498Z,9.57
2019-03-30T16:58:39.147Z,10.93
2019-03-30T17:01:10.908Z,9.70
2019-03-30T17:03:41.515Z,9.90
2019-03-30T17:06:11.961Z,10.10
2019-03-30T17:08:42.755Z,11.70
2019-03-30T17:11:13.415Z,11.80
2019-03-30T17:13:44.169Z,12.23
2019-03-30T17:16:15.796Z,12.70
2019-03-30T17:18:46.448Z,14.87
2019-03-30T17:21:17.307Z,18.27
2019-03-30T17:23:48.425Z,20.90
2019-03-30T17:26:19.289Z,19.95
2019-03-30T17:28:55.538Z,23.07
2019-03-30T17:31:26.419Z,23.17
2019-03-30T17:33:57.602Z,23.83
2019-03-30T17:36:28.144Z,23.37
2019-03-30T17:38:58.665Z,25.33
2019-03-30T17:41:29.660Z,25.70
2019-03-30T17:44:00.407Z,26.90
2019-03-30T17:46:31.174Z,27.00
2019-03-30T17:49:02.614Z,26.80
2019-03-30T17:51:37.164Z,25.73
2019-03-30T17:54:08.913Z,28.60
2019-03-30T17:56:39.740Z,26.20
2019-03-30T17:59:10.441Z,26.30
2019-03-30T18:01:41.114Z,28.60
2019-03-30T18:04:11.959Z,28.67
2019-03-30T18:06:42.467Z,29.07
2019-03-30T18:09:13.555Z,29.43
2019-03-30T18:11:44.749Z,29.80
2019-03-30T18:14:15.591Z,29.60
2019-03-30T18:47:25.046Z,31.50
2019-03-30T18:50:02.913Z,31.10
2019-03-30T18:52:35.806Z,33.57
2019-03-30T18:55:07.974Z,35.13
2019-03-30T18:57:38.819Z,32.10
2019-03-30T19:00:10.114Z,31.93
2019-03-30T19:02:40.787Z,33.20
2019-03-30T19:05:11.634Z,33.77
2019-03-30T19:07:42.173Z,31.70
2019-03-30T19:10:13.064Z,36.07
2019-03-30T19:12:43.831Z,34.80
2019-03-30T19:15:14.426Z,36.13
2019-03-30T19:17:45.184Z,37.17
2019-03-30T19:20:16.723Z,34.33
2019-03-30T19:22:47.169Z,37.77
2019-03-30T19:25:18.085Z,36.63
2019-03-30T19:27:48.851Z,37.73
2019-03-30T19:30:19.717Z,36.73
2019-03-30T19:32:51.131Z,39.70
2019-03-30T19:35:23.216Z,37.80
2019-03-30T19:37:53.711Z,41.57
2019-03-30T19:40:24.257Z,41.40
2019-03-30T19:42:55.110Z,42.93
2019-03-30T19:45:26.093Z,45.40
2019-03-30T19:47:57.858Z,47.53
2019-03-30T19:50:28.686Z,46.87
2019-03-30T19:52:59.341Z,48.33
2019-03-30T19:55:29.887Z,47.50
2019-03-30T19:58:00.394Z,45.40
2019-03-30T20:00:31.024Z,50.30
2019-03-30T20:03:01.761Z,51.53
2019-03-30T20:05:32.316Z,51.47
2019-03-30T20:08:12.007Z,49.83
2019-03-30T20:10:36.329Z,46.97
2019-03-30T20:13:09.245Z,49.73
2019-03-30T20:15:39.416Z,51.20
2019-03-30T20:18:10.159Z,49.48
2019-03-30T20:20:40.867Z,49.00
2019-03-30T20:23:11.516Z,45.93
2019-03-30T20:25:42.261Z,46.87
2019-03-30T20:28:13.200Z,47.88
2019-03-30T20:30:43.728Z,48.57
2019-03-30T20:33:14.574Z,47.80
2019-03-30T20:35:46.494Z,46.60
2019-03-30T20:38:17.161Z,46.27
2019-03-30T20:40:47.997Z,43.33
2019-03-30T20:43:18.527Z,47.30
2019-03-30T20:45:49.501Z,44.10
2019-03-30T20:48:20.271Z,43.92
2019-03-30T20:50:51.325Z,43.33
2019-03-30T20:53:21.861Z,43.83
2019-03-30T20:55:52.391Z,41.53
2019-03-30T20:58:26.161Z,44.67
2019-03-30T21:00:57.131Z,43.47
2019-03-30T21:03:27.659Z,40.53
2019-03-30T21:05:59.117Z,46.70
2019-03-30T21:08:29.655Z,43.77
2019-03-30T21:11:00.430Z,43.67
2019-03-30T21:13:32.519Z,42.93
2019-03-30T21:16:03.452Z,44.67
2019-03-30T21:18:35.488Z,43.57
2019-03-30T21:21:09.110Z,43.87
2019-03-30T21:23:39.752Z,42.30
2019-03-30T21:26:12.258Z,47.70
2019-03-30T21:28:42.854Z,45.30
2019-03-30T21:31:13.605Z,42.37
2019-03-30T21:33:44.599Z,44.20
2019-03-30T21:36:15.796Z,42.43
2019-03-30T21:38:48.770Z,43.27
2019-03-30T21:41:19.714Z,46.53
2019-03-30T21:43:50.255Z,43.07
2019-03-30T21:46:21.087Z,42.55
2019-03-30T21:48:51.796Z,43.60
2019-03-30T21:51:22.646Z,42.50
2019-03-30T21:53:53.270Z,41.53
2019-03-30T21:56:24.122Z,41.08
2019-03-30T21:58:54.820Z,39.00
2019-03-30T22:01:25.180Z,39.93
2019-03-30T22:03:55.771Z,42.57
2019-03-30T22:06:26.627Z,41.47
2019-03-30T22:08:57.242Z,41.20
2019-03-30T22:11:28.014Z,39.93
2019-03-30T22:13:58.935Z,44.57
2019-03-30T22:16:30.493Z,40.90
2019-03-30T22:19:01.325Z,42.53
2019-03-30T22:21:33.136Z,43.87
2019-03-30T22:24:03.730Z,42.90
2019-03-30T22:26:36.141Z,42.77
2019-03-30T22:29:13.991Z,43.87
2019-03-30T22:31:44.611Z,46.27
2019-03-30T22:34:15.738Z,46.33
2019-03-30T22:36:46.263Z,44.63
2019-03-30T22:39:17.110Z,43.65
2019-03-30T22:41:47.768Z,46.73
2019-03-30T22:44:18.593Z,48.87
2019-03-30T22:46:49.327Z,50.23
2019-03-30T22:49:20.152Z,47.83
2019-03-30T22:51:51.099Z,42.73
2019-03-30T22:54:22.247Z,43.55
2019-03-30T22:56:53.117Z,43.63
2019-03-30T22:59:24.220Z,44.18
2019-03-30T23:01:55.070Z,44.45
2019-03-30T23:04:25.595Z,46.00
2019-03-30T23:06:56.508Z,45.87
2019-03-30T23:09:26.966Z,43.37
2019-03-30T23:11:57.600Z,47.25
2019-03-30T23:14:28.023Z,47.70
2019-03-30T23:16:58.715Z,48.03
2019-03-30T23:19:29.051Z,50.97
2019-03-30T23:21:59.634Z,47.53
2019-03-30T23:24:30.504Z,48.40
2019-03-30T23:27:01.018Z,47.63
2019-03-30T23:29:31.470Z,48.27
2019-03-30T23:32:02.630Z,50.67
2019-03-30T23:34:33.153Z,51.80
2019-03-30T23:37:04.066Z,49.85
2019-03-30T23:39:34.759Z,49.20
2019-03-30T23:42:06.561Z,49.73
2019-03-30T23:44:36.891Z,50.33
2019-03-30T23:47:07.236Z,47.80
2019-03-30T23:49:38.168Z,47.43
2019-03-30T23:52:08.688Z,48.33
2019-03-30T23:54:40.378Z,49.67
2019-03-30T23:57:11.292Z,51.58
2019-03-30T23:59:41.809Z,51.30
